Time;durP1;ratioP1;P1;durP2;ratioP2;P2;SDS_P1;SDS_P2;PMS_P1;PMS_P2;Temp;Humidity;BMP_temperature;BMP_pressure;BME280_temperature;BME280_humidity;BME280_pressure;Samples;Min_cycle;Max_cycle;Signal;HPM_P1;HPM_P2
2022/03/12 00:03:10;;;;;;;17.88;9.30;;;;;;;;;;10275157;28;20087;-56
2022/03/12 00:08:08;;;;;;;9.80;8.00;;;;;;;;;;10274685;28;20052;-56
2022/03/12 00:13:08;;;;;;;14.13;9.80;;;;;;;;;;10274890;28;20052;-56
2022/03/12 00:18:09;;;;;;;11.90;9.13;;;;;;;;;;10274956;28;20070;-55
2022/03/12 00:23:18;;;;;;;19.17;10.20;;;;;;;;;;10279361;28;20111;-56
2022/03/12 00:28:18;;;;;;;17.30;9.93;;;;;;;;;;10283104;28;20037;-56
2022/03/12 00:33:18;;;;;;;11.48;8.68;;;;;;;;;;10281621;28;20087;-55
2022/03/12 00:38:17;;;;;;;14.02;8.02;;;;;;;;;;10282719;28;20045;-56
2022/03/12 00:43:16;;;;;;;12.02;9.00;;;;;;;;;;10282728;28;20077;-55
2022/03/12 00:48:17;;;;;;;14.30;10.00;;;;;;;;;;10281967;28;20089;-55
2022/03/12 00:53:34;;;;;;;14.77;10.82;;;;;;;;;;10241678;28;20045;-55
2022/03/12 00:58:33;;;;;;;19.73;11.52;;;;;;;;;;10240837;28;20077;-55
2022/03/12 01:03:32;;;;;;;16.50;11.10;;;;;;;;;;10245449;28;20076;-53
2022/03/12 01:08:31;;;;;;;15.13;11.10;;;;;;;;;;10281557;28;20081;-55
2022/03/12 01:13:29;;;;;;;17.48;10.55;;;;;;;;;;10281322;28;20041;-56
2022/03/12 01:18:28;;;;;;;17.92;11.95;;;;;;;;;;10281011;28;20056;-55
2022/03/12 01:23:28;;;;;;;18.00;11.65;;;;;;;;;;10280212;28;20084;-54
2022/03/12 01:28:26;;;;;;;17.80;10.98;;;;;;;;;;10280616;28;20040;-55
2022/03/12 01:33:24;;;;;;;22.70;14.07;;;;;;;;;;10279003;28;20088;-54
2022/03/12 01:38:30;;;;;;;18.50;12.07;;;;;;;;;;10279761;28;20493;-55
2022/03/12 01:43:30;;;;;;;18.33;12.18;;;;;;;;;;10280312;28;20076;-55
2022/03/12 01:48:30;;;;;;;20.20;12.18;;;;;;;;;;10280426;28;20071;-56
2022/03/12 01:53:29;;;;;;;19.27;12.07;;;;;;;;;;10280073;28;20056;-56
2022/03/12 01:58:28;;;;;;;19.77;13.82;;;;;;;;;;10278928;28;20084;-54
2022/03/12 02:03:28;;;;;;;22.05;13.10;;;;;;;;;;10278880;28;20129;-55
2022/03/12 02:08:26;;;;;;;17.42;12.13;;;;;;;;;;10279131;28;20064;-55
2022/03/12 02:13:26;;;;;;;34.42;22.02;;;;;;;;;;10278431;28;20045;-56
2022/03/12 02:18:25;;;;;;;27.35;17.98;;;;;;;;;;10278375;28;20407;-55
2022/03/12 02:23:23;;;;;;;19.95;12.65;;;;;;;;;;10278599;28;20076;-56
2022/03/12 02:28:23;;;;;;;15.63;11.05;;;;;;;;;;10278433;28;20076;-55
2022/03/12 02:33:24;;;;;;;19.48;12.85;;;;;;;;;;10278126;28;20045;-55
2022/03/12 02:38:24;;;;;;;21.60;12.25;;;;;;;;;;10278234;28;20076;-54
2022/03/12 02:43:26;;;;;;;15.68;10.27;;;;;;;;;;10278151;28;20072;-56
2022/03/12 02:48:25;;;;;;;21.52;12.77;;;;;;;;;;10277157;28;20092;-58
2022/03/12 02:53:23;;;;;;;16.23;9.52;;;;;;;;;;10277171;28;20478;-55
2022/03/12 02:58:22;;;;;;;13.20;9.48;;;;;;;;;;10277123;28;20076;-56
2022/03/12 03:03:21;;;;;;;21.30;12.27;;;;;;;;;;10277098;28;20091;-56
2022/03/12 03:08:21;;;;;;;23.83;14.88;;;;;;;;;;10276773;28;20075;-56
2022/03/12 03:13:31;;;;;;;22.40;12.98;;;;;;;;;;10276686;28;20072;-55
2022/03/12 03:18:32;;;;;;;50.20;23.60;;;;;;;;;;10276812;28;20053;-55
2022/03/12 03:23:31;;;;;;;22.23;13.68;;;;;;;;;;10275898;28;20080;-55
2022/03/12 03:28:29;;;;;;;41.47;22.67;;;;;;;;;;10274498;28;20076;-56
2022/03/12 03:33:28;;;;;;;30.75;17.23;;;;;;;;;;10275991;28;20083;-56
2022/03/12 03:38:27;;;;;;;27.00;17.65;;;;;;;;;;10276334;28;20093;-55
2022/03/12 03:43:26;;;;;;;44.88;24.98;;;;;;;;;;10275674;28;20528;-56
2022/03/12 03:48:25;;;;;;;25.40;18.35;;;;;;;;;;10236095;28;20431;-55
2022/03/12 03:53:24;;;;;;;29.70;19.73;;;;;;;;;;10234791;28;20046;-57
2022/03/12 03:58:25;;;;;;;28.05;20.63;;;;;;;;;;10234424;28;20049;-56
2022/03/12 04:03:24;;;;;;;30.50;19.80;;;;;;;;;;10234681;28;20073;-56
2022/03/12 04:08:23;;;;;;;25.95;17.23;;;;;;;;;;10235121;28;20085;-55
2022/03/12 04:13:22;;;;;;;27.55;16.23;;;;;;;;;;10234809;28;20046;-55
2022/03/12 04:18:22;;;;;;;26.48;17.92;;;;;;;;;;10234497;28;20073;-55
2022/03/12 04:23:21;;;;;;;35.97;20.27;;;;;;;;;;10234159;28;20084;-56
2022/03/12 04:28:20;;;;;;;30.55;16.27;;;;;;;;;;10234520;28;20041;-56
2022/03/12 04:33:19;;;;;;;51.83;28.52;;;;;;;;;;10233207;28;20514;-56
2022/03/12 04:38:18;;;;;;;28.27;21.45;;;;;;;;;;10234356;28;20111;-57
2022/03/12 04:43:17;;;;;;;31.27;20.73;;;;;;;;;;10234443;28;20091;-56
2022/03/12 04:48:15;;;;;;;62.38;33.25;;;;;;;;;;10233335;28;20054;-55
2022/03/12 04:53:14;;;;;;;33.55;24.30;;;;;;;;;;10233225;28;20404;-55
2022/03/12 04:58:13;;;;;;;31.70;22.15;;;;;;;;;;10234132;28;20089;-57
2022/03/12 05:03:12;;;;;;;19.83;15.68;;;;;;;;;;10233713;28;20077;-55
2022/03/12 05:08:13;;;;;;;26.13;16.25;;;;;;;;;;10235067;28;20522;-56
2022/03/12 05:13:12;;;;;;;42.78;25.02;;;;;;;;;;10241007;28;20073;-56
2022/03/12 05:18:12;;;;;;;43.33;29.58;;;;;;;;;;10240248;28;20552;-56
2022/03/12 05:23:11;;;;;;;39.08;23.83;;;;;;;;;;10274056;28;20041;-57
2022/03/12 05:28:17;;;;;;;18.55;12.60;;;;;;;;;;10276998;28;20505;-53
2022/03/12 05:33:17;;;;;;;23.10;15.38;;;;;;;;;;10270160;28;20413;-54
2022/03/12 05:38:15;;;;;;;25.13;17.02;;;;;;;;;;10280331;28;20056;-56
2022/03/12 05:43:16;;;;;;;28.67;19.48;;;;;;;;;;10279402;28;20069;-56
2022/03/12 05:48:14;;;;;;;22.58;14.45;;;;;;;;;;10276217;28;20096;-55
2022/03/12 05:53:19;;;;;;;20.38;10.75;;;;;;;;;;10252972;28;20494;-56
2022/03/12 05:58:19;;;;;;;24.80;16.65;;;;;;;;;;10275797;28;20430;-55
2022/03/12 06:03:19;;;;;;;15.80;12.38;;;;;;;;;;10265523;28;20049;-56
2022/03/12 06:08:21;;;;;;;28.33;18.00;;;;;;;;;;10262188;28;20076;-53
2022/03/12 06:13:22;;;;;;;44.45;23.67;;;;;;;;;;10278580;28;20095;-56
2022/03/12 06:18:24;;;;;;;27.02;19.25;;;;;;;;;;10276289;28;20497;-55
2022/03/12 06:23:23;;;;;;;29.92;17.75;;;;;;;;;;10277944;28;20053;-55
2022/03/12 06:28:22;;;;;;;78.97;42.33;;;;;;;;;;10273987;28;20073;-55
2022/03/12 06:33:22;;;;;;;79.47;37.08;;;;;;;;;;10265464;28;20509;-55
2022/03/12 06:38:21;;;;;;;73.65;38.05;;;;;;;;;;10261774;28;20147;-55
2022/03/12 06:43:21;;;;;;;65.82;32.80;;;;;;;;;;10247060;28;20522;-56
2022/03/12 06:48:19;;;;;;;45.72;26.45;;;;;;;;;;10256175;28;20093;-56
2022/03/12 06:53:18;;;;;;;24.58;17.23;;;;;;;;;;10272831;28;20434;-55
2022/03/12 06:58:17;;;;;;;31.13;22.50;;;;;;;;;;10265330;28;20068;-55
2022/03/12 07:03:17;;;;;;;24.48;15.77;;;;;;;;;;10260180;28;20512;-55
2022/03/12 07:08:15;;;;;;;23.35;15.57;;;;;;;;;;10259601;28;20487;-55
2022/03/12 07:13:14;;;;;;;22.20;16.38;;;;;;;;;;10254757;28;20049;-55
2022/03/12 07:18:12;;;;;;;19.05;13.98;;;;;;;;;;10251465;28;20715;-55
2022/03/12 07:23:12;;;;;;;18.88;14.50;;;;;;;;;;10263314;28;20061;-55
2022/03/12 07:28:11;;;;;;;34.03;23.05;;;;;;;;;;10269855;28;20452;-55
2022/03/12 07:33:10;;;;;;;20.63;13.18;;;;;;;;;;10268056;28;20068;-55
2022/03/12 07:38:08;;;;;;;32.30;22.25;;;;;;;;;;10275302;28;20041;-55
2022/03/12 07:43:08;;;;;;;20.33;15.43;;;;;;;;;;10275417;28;20133;-56
2022/03/12 07:48:07;;;;;;;27.60;19.10;;;;;;;;;;10274328;28;20084;-55
2022/03/12 07:53:27;;;;;;;26.05;16.80;;;;;;;;;;10274481;28;20083;-56
2022/03/12 07:58:27;;;;;;;25.38;20.00;;;;;;;;;;10273610;28;20072;-55
2022/03/12 08:03:26;;;;;;;21.02;14.80;;;;;;;;;;10275869;28;20072;-55
2022/03/12 08:08:24;;;;;;;27.85;22.15;;;;;;;;;;10275750;28;20210;-55
2022/03/12 08:13:23;;;;;;;38.53;21.98;;;;;;;;;;10275785;28;20080;-55
2022/03/12 08:18:23;;;;;;;39.85;24.75;;;;;;;;;;10275292;28;20492;-55
2022/03/12 08:23:22;;;;;;;35.88;23.58;;;;;;;;;;10275994;28;20082;-52
2022/03/12 08:28:21;;;;;;;109.63;48.22;;;;;;;;;;10275543;28;20123;-55
2022/03/12 08:33:20;;;;;;;64.72;32.72;;;;;;;;;;10274998;28;20558;-55
2022/03/12 08:38:20;;;;;;;44.53;23.25;;;;;;;;;;10275447;28;20612;-54
2022/03/12 08:43:19;;;;;;;19.02;13.73;;;;;;;;;;10278205;28;20045;-53
2022/03/12 08:48:18;;;;;;;35.20;24.83;;;;;;;;;;10282073;28;20462;-54
2022/03/12 08:53:16;;;;;;;22.60;15.20;;;;;;;;;;10282988;28;20056;-52
2022/03/12 08:58:16;;;;;;;26.67;15.13;;;;;;;;;;10282088;28;20493;-54
2022/03/12 09:03:14;;;;;;;31.75;19.75;;;;;;;;;;10282042;28;20052;-54
2022/03/12 09:08:13;;;;;;;22.52;15.60;;;;;;;;;;10281969;28;20068;-55
2022/03/12 09:13:12;;;;;;;16.67;11.82;;;;;;;;;;10281358;28;20048;-56
2022/03/12 09:18:12;;;;;;;22.00;15.65;;;;;;;;;;10281428;28;20052;-55
2022/03/12 09:23:11;;;;;;;24.85;17.90;;;;;;;;;;10281215;28;20076;-55
2022/03/12 09:28:13;;;;;;;21.20;14.05;;;;;;;;;;10280955;28;20084;-55
2022/03/12 09:33:12;;;;;;;34.03;20.90;;;;;;;;;;10281139;28;20536;-54
2022/03/12 09:38:11;;;;;;;56.47;28.85;;;;;;;;;;10280457;28;20076;-56
2022/03/12 09:43:09;;;;;;;16.42;11.85;;;;;;;;;;10279854;28;20041;-55
2022/03/12 09:48:08;;;;;;;28.65;21.58;;;;;;;;;;10279570;28;20106;-53
2022/03/12 09:53:08;;;;;;;32.97;21.42;;;;;;;;;;10279337;28;20084;-54
2022/03/12 09:58:07;;;;;;;23.10;19.25;;;;;;;;;;10280340;28;20049;-54
2022/03/12 10:03:05;;;;;;;35.72;23.13;;;;;;;;;;10279669;28;20097;-53
2022/03/12 10:08:04;;;;;;;11.52;9.70;;;;;;;;;;10279504;28;20072;-55
2022/03/12 10:13:04;;;;;;;13.45;10.25;;;;;;;;;;10279041;28;20049;-54
2022/03/12 10:18:03;;;;;;;24.13;16.27;;;;;;;;;;10278334;28;20123;-55
2022/03/12 10:23:02;;;;;;;20.00;13.55;;;;;;;;;;10277991;28;20076;-55
2022/03/12 10:28:04;;;;;;;34.33;18.10;;;;;;;;;;10278441;28;20072;-54
2022/03/12 10:33:02;;;;;;;20.80;14.55;;;;;;;;;;10278607;28;20103;-55
2022/03/12 10:38:01;;;;;;;14.50;10.38;;;;;;;;;;10278055;28;20418;-55
2022/03/12 10:43:02;;;;;;;48.75;27.85;;;;;;;;;;10277775;28;20048;-54
2022/03/12 10:48:05;;;;;;;12.13;10.63;;;;;;;;;;10277396;28;20127;-54
2022/03/12 10:53:05;;;;;;;15.88;13.88;;;;;;;;;;10277465;28;20084;-53
2022/03/12 10:58:05;;;;;;;20.10;16.83;;;;;;;;;;10277483;28;20405;-53
2022/03/12 11:03:06;;;;;;;13.93;11.73;;;;;;;;;;10262832;28;20103;-54
2022/03/12 11:08:16;;;;;;;16.95;13.10;;;;;;;;;;10247017;28;20061;-56
2022/03/12 11:13:25;;;;;;;13.18;10.27;;;;;;;;;;10267862;28;20048;-54
2022/03/12 11:18:25;;;;;;;52.78;27.30;;;;;;;;;;10275366;28;20083;-56
2022/03/12 11:23:27;;;;;;;15.70;11.27;;;;;;;;;;10276435;28;20044;-56
2022/03/12 11:28:25;;;;;;;54.80;35.58;;;;;;;;;;10275631;28;20072;-55
2022/03/12 11:33:28;;;;;;;18.67;11.60;;;;;;;;;;10276395;28;20056;-55
2022/03/12 11:38:27;;;;;;;31.35;20.90;;;;;;;;;;10276282;28;20084;-55
2022/03/12 11:43:27;;;;;;;26.63;19.88;;;;;;;;;;10276262;28;20073;-55
2022/03/12 11:48:34;;;;;;;27.77;21.92;;;;;;;;;;10275700;28;20084;-53
2022/03/12 11:53:36;;;;;;;45.30;34.28;;;;;;;;;;10275739;28;20051;-53
2022/03/12 11:58:44;;;;;;;36.42;18.50;;;;;;;;;;10264959;28;20061;-55
2022/03/12 12:03:44;;;;;;;19.48;14.95;;;;;;;;;;10254876;28;20128;-57
2022/03/12 12:08:43;;;;;;;26.17;16.65;;;;;;;;;;10253753;28;20079;-55
2022/03/12 12:13:44;;;;;;;30.70;21.15;;;;;;;;;;10254527;28;20064;-57
2022/03/12 12:18:45;;;;;;;25.95;13.95;;;;;;;;;;10257896;28;20068;-56
2022/03/12 12:23:43;;;;;;;17.63;11.88;;;;;;;;;;10263199;28;20041;-53
2022/03/12 12:28:49;;;;;;;17.33;11.52;;;;;;;;;;10261162;28;20513;-55
2022/03/12 12:33:48;;;;;;;10.40;8.93;;;;;;;;;;10261703;28;20068;-55
2022/03/12 12:39:07;;;;;;;29.33;21.00;;;;;;;;;;10262158;28;20041;-55
2022/03/12 12:44:06;;;;;;;27.80;16.02;;;;;;;;;;10261282;28;20046;-56
2022/03/12 12:49:06;;;;;;;15.55;10.73;;;;;;;;;;10261533;28;20087;-55
2022/03/12 12:54:07;;;;;;;23.27;14.80;;;;;;;;;;10260922;28;20061;-54
2022/03/12 12:59:06;;;;;;;21.17;15.05;;;;;;;;;;10261641;28;20072;-54
2022/03/12 13:04:06;;;;;;;17.13;11.13;;;;;;;;;;10260504;28;20470;-56
2022/03/12 13:09:08;;;;;;;12.35;8.20;;;;;;;;;;10260900;28;20473;-56
2022/03/12 13:14:08;;;;;;;17.02;10.63;;;;;;;;;;10260443;28;20359;-56
2022/03/12 13:19:11;;;;;;;20.80;14.85;;;;;;;;;;10260822;28;20041;-55
2022/03/12 13:24:19;;;;;;;17.50;15.65;;;;;;;;;;10260432;28;20518;-56
2022/03/12 13:29:21;;;;;;;44.30;26.75;;;;;;;;;;10257797;28;20077;-58
2022/03/12 13:34:21;;;;;;;38.28;32.58;;;;;;;;;;10258877;28;20084;-53
2022/03/12 13:39:20;;;;;;;26.35;17.50;;;;;;;;;;10258501;28;20481;-55
2022/03/12 13:44:19;;;;;;;34.95;18.08;;;;;;;;;;10258370;28;20521;-53
2022/03/12 13:49:19;;;;;;;57.75;26.98;;;;;;;;;;10255758;28;20084;-54
2022/03/12 13:54:20;;;;;;;15.30;10.13;;;;;;;;;;10254302;28;20064;-54
2022/03/12 13:59:24;;;;;;;17.55;11.35;;;;;;;;;;10256486;28;20085;-56
2022/03/12 14:04:24;;;;;;;14.13;11.33;;;;;;;;;;10257433;28;20071;-55
2022/03/12 14:09:46;;;;;;;37.17;28.30;;;;;;;;;;10256600;28;20519;-55
2022/03/12 14:14:46;;;;;;;16.25;9.82;;;;;;;;;;10258245;28;20487;-52
2022/03/12 14:19:44;;;;;;;19.70;13.70;;;;;;;;;;10257598;28;20045;-53
2022/03/12 14:24:45;;;;;;;10.88;8.40;;;;;;;;;;10258532;28;20080;-54
2022/03/12 14:29:44;;;;;;;31.08;18.60;;;;;;;;;;10257246;28;20084;-55
2022/03/12 14:34:44;;;;;;;11.63;8.15;;;;;;;;;;10258014;28;20072;-53
2022/03/12 14:39:44;;;;;;;14.98;10.93;;;;;;;;;;10256612;28;20076;-51
2022/03/12 14:44:45;;;;;;;22.00;15.65;;;;;;;;;;10257733;28;20111;-56
2022/03/12 14:49:46;;;;;;;28.05;19.00;;;;;;;;;;10255440;28;20092;-51
2022/03/12 14:54:48;;;;;;;37.35;22.02;;;;;;;;;;10257456;28;20073;-53
2022/03/12 14:59:47;;;;;;;26.50;16.48;;;;;;;;;;10256031;28;20502;-55
2022/03/12 15:04:55;;;;;;;51.40;23.98;;;;;;;;;;10257211;28;20069;-55
2022/03/12 15:10:02;;;;;;;19.67;10.52;;;;;;;;;;10255340;28;20148;-56
2022/03/12 15:15:04;;;;;;;16.42;11.60;;;;;;;;;;10256086;28;20441;-56
2022/03/12 15:20:07;;;;;;;13.57;10.13;;;;;;;;;;10255940;28;20475;-56
2022/03/12 15:25:08;;;;;;;23.70;18.70;;;;;;;;;;10254615;28;20099;-52
2022/03/12 15:30:07;;;;;;;18.50;14.45;;;;;;;;;;10254400;28;20079;-53
2022/03/12 15:35:08;;;;;;;20.38;14.80;;;;;;;;;;10256911;28;20414;-56
2022/03/12 15:40:09;;;;;;;17.48;12.05;;;;;;;;;;10254491;28;20502;-52
2022/03/12 15:45:09;;;;;;;46.70;28.02;;;;;;;;;;10256239;28;20038;-55
2022/03/12 15:50:09;;;;;;;37.15;23.50;;;;;;;;;;10253229;28;20080;-55
2022/03/12 15:55:29;;;;;;;32.45;21.45;;;;;;;;;;10255290;28;20514;-54
2022/03/12 16:00:31;;;;;;;26.08;17.88;;;;;;;;;;10254225;28;20052;-55
2022/03/12 16:05:30;;;;;;;25.45;16.00;;;;;;;;;;10252884;28;20498;-56
2022/03/12 16:10:31;;;;;;;54.65;33.33;;;;;;;;;;10253747;28;20099;-57
2022/03/12 16:15:29;;;;;;;97.10;59.97;;;;;;;;;;10255208;28;20075;-57
2022/03/12 16:20:29;;;;;;;100.90;65.00;;;;;;;;;;10254077;28;20099;-57
2022/03/12 16:25:29;;;;;;;99.07;58.35;;;;;;;;;;10254965;28;20053;-57
2022/03/12 16:30:29;;;;;;;144.00;74.22;;;;;;;;;;10254027;28;20072;-55
2022/03/12 16:35:28;;;;;;;135.60;68.07;;;;;;;;;;10254428;28;20045;-54
2022/03/12 16:40:35;;;;;;;69.45;35.92;;;;;;;;;;10254011;28;20072;-56
2022/03/12 16:45:36;;;;;;;44.95;28.63;;;;;;;;;;10252516;28;20191;-57
2022/03/12 16:50:35;;;;;;;63.63;37.55;;;;;;;;;;10251955;28;20100;-56
2022/03/12 16:55:34;;;;;;;62.35;37.00;;;;;;;;;;10254457;28;20080;-56
2022/03/12 17:00:34;;;;;;;32.63;23.58;;;;;;;;;;10253025;28;20092;-52
2022/03/12 17:05:36;;;;;;;40.38;29.13;;;;;;;;;;10259285;28;20080;-55
2022/03/12 17:10:38;;;;;;;62.20;37.45;;;;;;;;;;10260175;28;20068;-56
2022/03/12 17:15:36;;;;;;;57.60;38.50;;;;;;;;;;10261480;28;20065;-53
2022/03/12 17:20:37;;;;;;;62.85;41.92;;;;;;;;;;10259861;28;20075;-56
2022/03/12 17:25:35;;;;;;;77.90;48.70;;;;;;;;;;10261089;28;20168;-53
2022/03/12 17:30:35;;;;;;;56.45;36.58;;;;;;;;;;10260177;28;20152;-56
2022/03/12 17:35:34;;;;;;;55.25;32.30;;;;;;;;;;10255632;28;20084;-55
2022/03/12 17:40:35;;;;;;;55.53;41.33;;;;;;;;;;10259704;28;20072;-56
2022/03/12 17:45:34;;;;;;;36.25;23.77;;;;;;;;;;10258896;28;20497;-56
2022/03/12 17:50:32;;;;;;;36.90;24.15;;;;;;;;;;10258332;28;20447;-56
2022/03/12 17:55:31;;;;;;;70.65;34.95;;;;;;;;;;10258499;28;20076;-56
2022/03/12 18:00:31;;;;;;;75.85;38.53;;;;;;;;;;10259503;28;20995;-55
2022/03/12 18:05:31;;;;;;;65.57;37.42;;;;;;;;;;10255572;28;20505;-55
2022/03/12 18:10:30;;;;;;;52.90;31.45;;;;;;;;;;10256492;28;20073;-55
2022/03/12 18:15:29;;;;;;;41.95;25.42;;;;;;;;;;10253777;28;20498;-56
2022/03/12 18:20:29;;;;;;;56.88;31.38;;;;;;;;;;10253776;28;20160;-56
2022/03/12 18:25:28;;;;;;;57.85;32.03;;;;;;;;;;10254869;28;20037;-55
2022/03/12 18:30:27;;;;;;;51.22;29.67;;;;;;;;;;10253870;28;20501;-56
2022/03/12 18:35:25;;;;;;;28.42;21.15;;;;;;;;;;10253612;28;20486;-56
2022/03/12 18:40:25;;;;;;;25.13;18.27;;;;;;;;;;10254969;28;20064;-56
2022/03/12 18:45:25;;;;;;;42.63;28.25;;;;;;;;;;10254978;28;20510;-54
2022/03/12 18:50:24;;;;;;;55.22;29.17;;;;;;;;;;10254425;28;20514;-56
2022/03/12 18:55:22;;;;;;;77.75;41.85;;;;;;;;;;10254482;28;20443;-57
2022/03/12 19:00:22;;;;;;;60.05;34.55;;;;;;;;;;10255051;28;20471;-55
2022/03/12 19:05:21;;;;;;;27.77;22.58;;;;;;;;;;10252499;28;20089;-57
2022/03/12 19:10:19;;;;;;;23.08;16.67;;;;;;;;;;10252192;28;20064;-57
2022/03/12 19:15:20;;;;;;;23.67;16.75;;;;;;;;;;10251640;28;20045;-56
2022/03/12 19:20:19;;;;;;;23.25;16.50;;;;;;;;;;10251317;28;20041;-56
2022/03/12 19:25:18;;;;;;;31.08;21.08;;;;;;;;;;10251704;28;20033;-56
2022/03/12 19:30:21;;;;;;;51.45;28.25;;;;;;;;;;10251084;28;20150;-54
2022/03/12 19:35:21;;;;;;;32.17;21.05;;;;;;;;;;10249626;28;20041;-56
2022/03/12 19:40:20;;;;;;;37.97;24.17;;;;;;;;;;10251403;28;20068;-55
2022/03/12 19:45:19;;;;;;;46.20;28.35;;;;;;;;;;10250363;28;20084;-55
2022/03/12 19:50:19;;;;;;;23.48;15.80;;;;;;;;;;10251682;28;20463;-56
2022/03/12 19:55:19;;;;;;;28.83;19.10;;;;;;;;;;10251430;28;20041;-55
2022/03/12 20:00:19;;;;;;;61.00;33.47;;;;;;;;;;10253413;28;20056;-55
2022/03/12 20:05:17;;;;;;;61.75;32.25;;;;;;;;;;10250846;28;20172;-54
2022/03/12 20:10:16;;;;;;;32.15;18.92;;;;;;;;;;10252636;28;20088;-53
2022/03/12 20:15:18;;;;;;;74.20;39.15;;;;;;;;;;10251530;28;20052;-56
2022/03/12 20:20:16;;;;;;;97.32;43.78;;;;;;;;;;10250100;28;20041;-57
2022/03/12 20:25:16;;;;;;;144.73;64.80;;;;;;;;;;10251204;28;20041;-56
2022/03/12 20:30:16;;;;;;;49.15;26.08;;;;;;;;;;10252400;28;20624;-57
2022/03/12 20:35:14;;;;;;;89.97;39.83;;;;;;;;;;10252768;28;20355;-55
2022/03/12 20:40:14;;;;;;;176.48;70.57;;;;;;;;;;10256085;28;20065;-56
2022/03/12 20:45:15;;;;;;;114.55;47.05;;;;;;;;;;10261176;28;20068;-55
2022/03/12 20:50:15;;;;;;;141.73;63.40;;;;;;;;;;10258547;28;20088;-55
2022/03/12 20:55:15;;;;;;;189.45;71.85;;;;;;;;;;10260675;28;20458;-55
2022/03/12 21:00:13;;;;;;;163.18;64.90;;;;;;;;;;10259274;28;20072;-56
2022/03/12 21:05:16;;;;;;;231.57;86.30;;;;;;;;;;10265419;28;20463;-57
2022/03/12 21:10:17;;;;;;;249.05;95.95;;;;;;;;;;10259229;28;20084;-55
2022/03/12 21:15:15;;;;;;;158.23;63.47;;;;;;;;;;10257251;28;20064;-54
2022/03/12 21:20:17;;;;;;;136.07;61.08;;;;;;;;;;10249011;28;20071;-55
2022/03/12 21:25:15;;;;;;;170.75;73.90;;;;;;;;;;10255078;28;20049;-53
2022/03/12 21:30:16;;;;;;;96.22;43.13;;;;;;;;;;10250396;28;20077;-54
2022/03/12 21:35:18;;;;;;;102.18;42.85;;;;;;;;;;10248595;28;20489;-55
2022/03/12 21:40:18;;;;;;;158.38;63.42;;;;;;;;;;10250392;28;20095;-55
2022/03/12 21:45:16;;;;;;;89.60;36.17;;;;;;;;;;10256585;28;20132;-54
2022/03/12 21:50:16;;;;;;;142.00;56.67;;;;;;;;;;10250632;28;20081;-56
2022/03/12 21:55:15;;;;;;;131.77;52.83;;;;;;;;;;10252163;28;20066;-55
2022/03/12 22:00:21;;;;;;;129.90;54.72;;;;;;;;;;10233408;28;20473;-54
2022/03/12 22:05:24;;;;;;;186.40;74.47;;;;;;;;;;10264343;28;20087;-56
2022/03/12 22:10:23;;;;;;;91.60;41.90;;;;;;;;;;10273135;28;20064;-55
2022/03/12 22:15:21;;;;;;;100.53;47.25;;;;;;;;;;10273934;28;20061;-55
2022/03/12 22:20:21;;;;;;;88.20;39.35;;;;;;;;;;10271968;28;20065;-53
2022/03/12 22:25:19;;;;;;;97.60;37.55;;;;;;;;;;10268632;28;20057;-55
2022/03/12 22:30:18;;;;;;;189.63;66.35;;;;;;;;;;10261584;28;20072;-55
2022/03/12 22:35:16;;;;;;;47.17;27.48;;;;;;;;;;10247111;28;20073;-55
2022/03/12 22:40:18;;;;;;;32.63;20.48;;;;;;;;;;10253478;28;20087;-52
2022/03/12 22:45:18;;;;;;;20.80;12.73;;;;;;;;;;10245165;28;20050;-53
2022/03/12 22:50:20;;;;;;;16.23;11.23;;;;;;;;;;10238224;28;20077;-56
2022/03/12 22:55:21;;;;;;;14.23;10.30;;;;;;;;;;10252533;28;20049;-55
2022/03/12 23:00:37;;;;;;;14.48;10.90;;;;;;;;;;10255146;28;20061;-53
2022/03/12 23:10:58;;;;;;;12.88;9.45;;;;;;;;;;10242922;28;20072;-52
2022/03/12 23:15:56;;;;;;;20.50;12.23;;;;;;;;;;10253151;28;20514;-55
2022/03/12 23:20:55;;;;;;;25.00;16.38;;;;;;;;;;10256340;28;20103;-56
2022/03/12 23:25:54;;;;;;;22.30;15.30;;;;;;;;;;10255578;28;20041;-55
2022/03/12 23:30:53;;;;;;;17.35;12.38;;;;;;;;;;10254114;28;20084;-56
2022/03/12 23:35:53;;;;;;;36.10;24.75;;;;;;;;;;10255690;28;20442;-56
2022/03/12 23:40:54;;;;;;;14.15;10.70;;;;;;;;;;10255014;28;20081;-53
2022/03/12 23:45:56;;;;;;;15.30;11.50;;;;;;;;;;10254969;28;20536;-55
2022/03/12 23:50:54;;;;;;;27.30;15.88;;;;;;;;;;10254457;28;20080;-55
2022/03/12 23:56:17;;;;;;;26.65;13.48;;;;;;;;;;10255465;28;20048;-54
